createdAt,value
2018-01-20T00:01:27.026Z,94.4
2018-01-20T00:11:26.274Z,103.1
2018-01-20T00:21:28.252Z,99.8
2018-01-20T00:31:26.738Z,115.3
2018-01-20T00:41:27.422Z,122.2
2018-01-20T00:51:26.810Z,118.0
2018-01-20T01:01:26.527Z,117.2
2018-01-20T01:11:26.734Z,104.9
2018-01-20T01:21:26.371Z,116.6
2018-01-20T01:31:27.048Z,111.6
2018-01-20T01:41:26.234Z,113.9
2018-01-20T01:51:26.478Z,111.6
2018-01-20T02:01:27.196Z,101.2
2018-01-20T02:11:26.842Z,96.3
2018-01-20T02:21:26.467Z,92.5
2018-01-20T02:31:26.875Z,93.9
2018-01-20T02:41:29.088Z,96.3
2018-01-20T02:51:26.281Z,92.4
2018-01-20T03:01:26.473Z,95.1
2018-01-20T03:11:28.011Z,86.2
2018-01-20T03:21:27.434Z,106.2
2018-01-20T03:31:28.577Z,132.2
2018-01-20T03:41:26.947Z,149.2
2018-01-20T03:51:27.111Z,149.2
2018-01-20T04:01:26.298Z,133.7
2018-01-20T04:11:27.336Z,153.5
2018-01-20T04:21:28.907Z,143.8
2018-01-20T04:31:26.849Z,146.2
2018-01-20T04:41:26.045Z,148.9
2018-01-20T04:51:26.439Z,153.5
2018-01-20T05:01:26.772Z,164.4
2018-01-20T05:11:27.222Z,146.3
2018-01-20T05:21:27.402Z,137.2
2018-01-20T05:31:26.745Z,146.3
2018-01-20T05:41:27.515Z,132.3
2018-01-20T05:51:29.197Z,125.8
2018-01-20T06:01:26.533Z,118.6
2018-01-20T06:11:26.632Z,100.0
2018-01-20T06:21:28.486Z,103.2
2018-01-20T06:31:26.584Z,87.9
2018-01-20T06:41:26.976Z,104.4
2018-01-20T06:51:27.037Z,100.5
2018-01-20T07:01:26.794Z,101.0
2018-01-20T07:11:27.032Z,87.5
2018-01-20T07:21:26.448Z,75.1
2018-01-20T07:31:27.244Z,71.3
2018-01-20T07:41:28.029Z,67.1
2018-01-20T07:51:26.338Z,69.6
2018-01-20T08:01:28.509Z,73.0
2018-01-20T08:11:26.701Z,70.5
2018-01-20T08:21:26.022Z,67.5
2018-01-20T08:31:26.498Z,64.2
2018-01-20T08:41:26.951Z,70.5
2018-01-20T08:51:27.158Z,57.1
2018-01-20T09:01:26.861Z,59.6
2018-01-20T09:11:26.351Z,56.6
2018-01-20T09:21:26.687Z,59.5
2018-01-20T09:31:27.087Z,61.8
2018-01-20T09:41:26.821Z,54.9
2018-01-20T09:51:28.055Z,62.6
2018-01-20T10:01:26.732Z,46.4
2018-01-20T10:11:26.951Z,49.4
2018-01-20T10:21:26.277Z,47.8
2018-01-20T10:31:27.814Z,39.8
2018-01-20T10:41:27.975Z,41.3
2018-01-20T10:51:26.762Z,31.1
2018-01-20T11:01:28.304Z,48.1
2018-01-20T11:11:26.401Z,38.6
2018-01-20T11:21:26.817Z,33.5
2018-01-20T11:31:27.705Z,37.8
2018-01-20T11:41:28.399Z,46.2
2018-01-20T11:51:26.726Z,38.6
2018-01-20T12:01:27.159Z,44.8
2018-01-20T12:11:27.761Z,28.0
2018-01-20T12:21:27.567Z,25.8
2018-01-20T12:31:27.044Z,25.7
2018-01-20T12:41:26.848Z,22.0
2018-01-20T12:51:26.803Z,18.4
2018-01-20T13:01:27.005Z,10.4
2018-01-20T13:11:26.089Z,14.9
2018-01-20T13:21:26.680Z,15.6
2018-01-20T13:31:28.568Z,16.0
2018-01-20T13:41:26.753Z,14.8
2018-01-20T13:51:26.972Z,12.8
2018-01-20T14:01:28.142Z,14.1
2018-01-20T14:11:26.904Z,16.4
2018-01-20T14:21:26.236Z,14.0
2018-01-20T14:31:26.921Z,18.6
2018-01-20T14:41:26.603Z,17.5
2018-01-20T14:51:27.085Z,20.2
2018-01-20T15:01:26.595Z,21.1
2018-01-20T15:11:29.196Z,21.3
2018-01-20T15:21:26.595Z,19.2
2018-01-20T15:31:27.096Z,21.8
2018-01-20T15:41:27.600Z,22.1
2018-01-20T15:51:26.890Z,24.3
2018-01-20T16:01:27.468Z,30.0
2018-01-20T16:11:26.572Z,31.9
2018-01-20T16:21:32.446Z,74.5
2018-01-20T16:31:26.652Z,99.0
2018-01-20T16:41:29.403Z,121.3
2018-01-20T16:51:27.929Z,125.2
2018-01-20T17:01:28.962Z,118.2
2018-01-20T17:11:28.045Z,116.1
2018-01-20T17:21:26.354Z,118.1
2018-01-20T17:31:26.462Z,122.1
2018-01-20T17:41:27.486Z,122.3
2018-01-20T17:51:27.522Z,116.9
2018-01-20T18:01:27.733Z,118.8
2018-01-20T18:11:26.260Z,122.1
2018-01-20T18:21:28.046Z,114.1
2018-01-20T18:31:26.986Z,115.7
2018-01-20T18:41:26.452Z,125.7
2018-01-20T18:51:26.719Z,127.5
2018-01-20T19:01:27.185Z,124.2
2018-01-20T19:11:26.261Z,163.7
2018-01-20T19:21:26.622Z,168.8
2018-01-20T19:31:27.089Z,144.1
2018-01-20T19:41:26.469Z,144.6
2018-01-20T19:51:27.332Z,181.5
2018-01-20T20:01:26.785Z,203.7
2018-01-20T20:11:27.042Z,234.5
2018-01-20T20:21:26.321Z,384.6
2018-01-20T20:31:26.708Z,385.9
2018-01-20T20:41:27.153Z,445.8
2018-01-20T20:51:26.219Z,582.3
2018-01-20T21:01:27.497Z,515.8
2018-01-20T21:11:26.851Z,363.2
2018-01-20T21:21:26.719Z,420.6
2018-01-20T21:31:26.962Z,322.3
2018-01-20T21:41:26.421Z,305.6
2018-01-20T21:51:26.532Z,272.9
2018-01-20T22:01:31.463Z,255.7
2018-01-20T22:11:32.572Z,256.5
2018-01-20T22:21:27.787Z,244.8
2018-01-20T22:31:27.818Z,197.0
2018-01-20T22:41:28.588Z,222.7
2018-01-20T22:51:27.842Z,223.6
2018-01-20T23:01:26.402Z,214.9
2018-01-20T23:11:28.901Z,237.7
2018-01-20T23:21:26.271Z,205.0
2018-01-20T23:31:26.429Z,183.9
2018-01-20T23:41:26.577Z,185.4
2018-01-20T23:51:28.245Z,198.6
